createdAt,value
2019-03-13T00:00:46.365Z,-2.50
2019-03-13T00:04:10.350Z,-2.40
2019-03-13T00:07:38.200Z,-2.30
2019-03-13T00:11:02.208Z,-2.30
2019-03-13T00:14:26.191Z,-2.30
2019-03-13T00:17:50.073Z,-2.20
2019-03-13T00:21:14.364Z,-2.20
2019-03-13T00:24:38.340Z,-2.00
2019-03-13T00:28:02.170Z,-2.00
2019-03-13T00:35:49.983Z,-1.80
2019-03-13T00:39:13.868Z,-1.90
2019-03-13T00:42:37.932Z,-1.90
2019-03-13T00:46:01.791Z,-2.00
2019-03-13T00:49:27.367Z,-2.00
2019-03-13T00:52:55.537Z,-1.80
2019-03-13T00:56:20.778Z,-1.70
2019-03-13T00:59:46.778Z,-1.70
2019-03-13T01:03:24.116Z,-1.70
2019-03-13T01:06:52.220Z,-1.70
2019-03-13T01:10:17.731Z,-1.70
2019-03-13T01:13:41.490Z,-1.70
2019-03-13T01:17:07.740Z,-1.60
2019-03-13T01:20:31.513Z,-1.50
2019-03-13T01:23:58.402Z,-1.40
2019-03-13T01:27:23.837Z,-1.50
2019-03-13T01:31:09.496Z,-1.40
2019-03-13T01:34:43.803Z,-1.40
2019-03-13T01:38:09.338Z,-1.40
2019-03-13T01:41:36.068Z,-1.40
2019-03-13T01:45:01.816Z,-1.30
2019-03-13T01:56:24.887Z,-1.30
2019-03-13T01:59:48.739Z,-1.10
2019-03-13T02:03:12.593Z,-1.20
2019-03-13T02:06:36.500Z,-1.20
2019-03-13T02:10:04.474Z,-1.20
2019-03-13T02:13:28.102Z,-1.20
2019-03-13T02:16:57.977Z,-1.20
2019-03-13T02:20:22.189Z,-1.10
2019-03-13T02:23:49.725Z,-1.10
2019-03-13T02:31:21.084Z,-1.30
2019-03-13T02:34:47.730Z,-1.40
2019-03-13T02:38:11.650Z,-1.40
2019-03-13T02:41:35.358Z,-1.30
2019-03-13T02:44:59.288Z,-1.30
2019-03-13T02:48:23.277Z,-1.30
2019-03-13T02:51:47.262Z,-1.30
2019-03-13T02:55:11.849Z,-1.40
2019-03-13T02:58:35.679Z,-1.40
2019-03-13T03:02:01.078Z,-1.40
2019-03-13T03:05:24.897Z,-1.40
2019-03-13T03:08:48.705Z,-1.40
2019-03-13T03:12:12.548Z,-1.50
2019-03-13T03:15:36.335Z,-1.50
2019-03-13T03:19:00.200Z,-1.50
2019-03-13T03:22:23.984Z,-1.50
2019-03-13T03:25:47.986Z,-1.50
2019-03-13T03:29:11.963Z,-1.50
2019-03-13T03:32:35.952Z,-1.60
2019-03-13T03:35:59.758Z,-1.60
2019-03-13T03:39:23.826Z,-1.60
2019-03-13T03:42:47.993Z,-1.60
2019-03-13T03:46:11.678Z,-1.60
2019-03-13T03:49:35.536Z,-1.60
2019-03-13T03:52:59.562Z,-1.60
2019-03-13T03:56:23.399Z,-1.50
2019-03-13T03:59:47.437Z,-1.50
2019-03-13T04:03:11.103Z,-1.50
2019-03-13T04:06:34.932Z,-1.40
2019-03-13T04:09:58.823Z,-1.30
2019-03-13T04:13:22.476Z,-1.30
2019-03-13T04:16:46.704Z,-1.20
2019-03-13T04:20:12.301Z,-1.10
2019-03-13T04:23:36.100Z,-1.10
2019-03-13T04:27:00.040Z,-1.00
2019-03-13T04:30:23.876Z,-1.00
2019-03-13T04:33:47.725Z,-1.00
2019-03-13T04:37:11.606Z,-0.90
2019-03-13T04:40:35.441Z,-0.90
2019-03-13T04:43:59.271Z,-0.90
2019-03-13T04:47:25.047Z,-0.90
2019-03-13T04:50:48.670Z,-0.80
2019-03-13T04:54:12.373Z,-0.80
2019-03-13T04:57:36.242Z,-0.70
2019-03-13T05:01:00.051Z,-0.70
2019-03-13T05:04:24.625Z,-0.70
2019-03-13T05:07:48.587Z,-0.70
2019-03-13T05:11:12.311Z,-0.70
2019-03-13T05:14:36.020Z,-0.70
2019-03-13T05:17:59.771Z,-0.60
2019-03-13T05:21:23.671Z,-0.60
2019-03-13T05:24:47.629Z,-0.50
2019-03-13T05:28:11.418Z,-0.50
2019-03-13T05:31:35.232Z,-0.50
2019-03-13T05:34:59.241Z,-0.40
2019-03-13T05:38:30.672Z,-0.30
2019-03-13T05:41:55.985Z,-0.30
2019-03-13T05:45:19.779Z,-0.20
2019-03-13T05:48:43.740Z,-0.20
2019-03-13T05:52:07.528Z,0.00
2019-03-13T05:55:31.404Z,0.00
2019-03-13T05:58:55.239Z,0.10
2019-03-13T06:02:19.100Z,0.10
2019-03-13T06:05:42.854Z,0.10
2019-03-13T06:09:07.474Z,0.20
2019-03-13T06:12:31.192Z,0.30
2019-03-13T06:15:54.982Z,0.40
2019-03-13T06:19:18.885Z,0.50
2019-03-13T06:22:43.099Z,0.60
2019-03-13T06:26:06.875Z,0.70
2019-03-13T06:29:31.790Z,0.80
2019-03-13T06:32:56.551Z,0.90
2019-03-13T06:36:20.149Z,0.90
2019-03-13T06:39:44.178Z,1.00
2019-03-13T06:43:08.024Z,1.10
2019-03-13T06:46:31.754Z,1.20
2019-03-13T06:49:55.678Z,1.40
2019-03-13T06:53:19.429Z,1.50
2019-03-13T06:56:43.143Z,1.60
2019-03-13T07:00:29.536Z,1.80
2019-03-13T07:04:00.483Z,1.90
2019-03-13T07:07:25.886Z,2.10
2019-03-13T07:10:57.403Z,2.10
2019-03-13T07:14:25.574Z,2.20
2019-03-13T07:17:58.712Z,2.20
2019-03-13T07:21:24.162Z,2.20
2019-03-13T07:24:49.477Z,2.20
2019-03-13T07:28:14.834Z,2.30
2019-03-13T07:31:56.476Z,2.40
2019-03-13T07:35:27.644Z,2.40
2019-03-13T07:38:55.864Z,2.50
2019-03-13T07:42:37.328Z,2.70
2019-03-13T07:46:05.598Z,2.90
2019-03-13T07:49:45.633Z,3.20
2019-03-13T07:53:11.075Z,3.30
2019-03-13T07:56:54.596Z,3.50
2019-03-13T08:00:31.724Z,3.70
2019-03-13T08:04:00.283Z,4.10
2019-03-13T08:07:31.528Z,4.20
2019-03-13T08:11:02.732Z,4.40
2019-03-13T08:14:30.638Z,4.20
2019-03-13T08:17:55.894Z,4.00
2019-03-13T08:21:30.344Z,3.80
2019-03-13T08:24:55.764Z,3.80
2019-03-13T08:28:32.871Z,3.90
2019-03-13T08:32:14.395Z,3.90
2019-03-13T08:35:39.811Z,3.90
2019-03-13T08:39:19.385Z,4.10
2019-03-13T08:42:47.733Z,4.20
2019-03-13T08:46:15.663Z,4.50
2019-03-13T08:49:41.176Z,4.90
2019-03-13T08:53:07.041Z,4.90
2019-03-13T08:56:32.482Z,4.90
2019-03-13T08:59:57.842Z,4.90
2019-03-13T09:03:23.305Z,4.60
2019-03-13T09:06:51.837Z,4.40
2019-03-13T09:10:23.766Z,4.50
2019-03-13T09:13:49.221Z,4.60
2019-03-13T09:17:14.601Z,4.80
2019-03-13T09:20:42.887Z,5.00
2019-03-13T09:24:11.301Z,5.10
2019-03-13T09:27:39.766Z,5.10
2019-03-13T09:31:05.556Z,5.10
2019-03-13T09:34:30.973Z,5.00
2019-03-13T09:37:56.555Z,4.90
2019-03-13T09:41:22.057Z,4.90
2019-03-13T09:44:53.641Z,5.10
2019-03-13T09:48:27.728Z,5.10
2019-03-13T09:51:53.121Z,5.00
2019-03-13T09:55:18.730Z,5.00
2019-03-13T09:58:49.827Z,5.10
2019-03-13T10:02:15.593Z,5.10
2019-03-13T10:05:41.499Z,5.10
2019-03-13T10:09:14.964Z,5.20
2019-03-13T10:12:46.008Z,5.20
2019-03-13T10:16:14.304Z,5.20
2019-03-13T10:19:42.922Z,5.20
2019-03-13T10:23:12.956Z,5.20
2019-03-13T10:26:44.113Z,5.10
2019-03-13T10:30:12.644Z,5.10
2019-03-13T10:33:50.087Z,5.10
2019-03-13T10:37:33.526Z,5.00
2019-03-13T10:41:15.538Z,5.00
2019-03-13T10:44:52.593Z,5.00
2019-03-13T10:48:20.892Z,5.00
2019-03-13T10:51:51.968Z,5.00
2019-03-13T10:55:20.250Z,5.10
2019-03-13T10:59:03.506Z,5.10
2019-03-13T11:02:31.770Z,5.10
2019-03-13T11:06:13.835Z,5.10
2019-03-13T11:09:45.449Z,5.10
2019-03-13T11:13:13.826Z,5.10
2019-03-13T11:16:48.246Z,5.10
2019-03-13T11:20:29.906Z,5.10
2019-03-13T11:23:55.486Z,5.20
2019-03-13T11:27:26.923Z,5.20
2019-03-13T11:30:55.270Z,5.30
2019-03-13T11:34:26.731Z,5.30
2019-03-13T11:38:07.354Z,5.40
2019-03-13T11:41:41.974Z,5.40
2019-03-13T11:45:10.224Z,5.40
2019-03-13T11:48:50.823Z,5.30
2019-03-13T11:52:22.103Z,5.30
2019-03-13T11:55:50.251Z,5.30
2019-03-13T11:59:18.453Z,5.30
2019-03-13T12:02:44.187Z,5.40
2019-03-13T12:06:09.596Z,5.30
2019-03-13T12:09:35.626Z,5.30
2019-03-13T12:13:03.714Z,5.40
2019-03-13T12:16:32.082Z,5.40
2019-03-13T12:19:57.471Z,5.40
2019-03-13T12:23:31.553Z,5.40
2019-03-13T12:26:57.014Z,5.40
2019-03-13T12:30:34.315Z,5.30
2019-03-13T12:33:59.796Z,5.30
2019-03-13T12:37:25.169Z,5.30
2019-03-13T12:40:56.220Z,5.30
2019-03-13T12:44:24.352Z,5.40
2019-03-13T12:47:52.991Z,5.40
2019-03-13T12:51:21.688Z,5.50
2019-03-13T12:54:53.205Z,5.60
2019-03-13T12:58:24.866Z,5.70
2019-03-13T13:01:50.381Z,6.00
2019-03-13T13:05:18.841Z,6.30
2019-03-13T13:08:59.443Z,6.50
2019-03-13T13:12:41.066Z,6.60
2019-03-13T13:16:09.885Z,7.10
2019-03-13T13:19:33.591Z,7.70
2019-03-13T13:22:57.401Z,8.90
2019-03-13T13:26:21.305Z,9.80
2019-03-13T13:29:45.402Z,9.20
2019-03-13T13:33:09.276Z,9.10
2019-03-13T13:36:34.149Z,9.70
2019-03-13T13:39:58.035Z,10.30
2019-03-13T13:43:21.885Z,10.60
2019-03-13T13:46:45.611Z,10.10
2019-03-13T13:50:10.101Z,9.10
2019-03-13T13:53:34.029Z,8.80
2019-03-13T13:56:57.846Z,8.50
2019-03-13T14:00:21.868Z,8.20
2019-03-13T14:03:45.743Z,8.40
2019-03-13T14:07:09.666Z,8.20
2019-03-13T14:10:33.458Z,8.00
2019-03-13T14:13:57.270Z,7.70
2019-03-13T14:17:20.979Z,7.60
2019-03-13T14:20:44.909Z,8.00
2019-03-13T14:24:08.935Z,8.90
2019-03-13T14:27:32.701Z,9.80
2019-03-13T14:30:56.575Z,10.40
2019-03-13T14:34:20.319Z,10.10
2019-03-13T14:37:44.243Z,10.00
2019-03-13T14:41:09.661Z,9.70
2019-03-13T14:44:34.929Z,9.50
2019-03-13T14:47:58.920Z,9.70
2019-03-13T14:51:22.696Z,9.50
2019-03-13T14:54:46.694Z,9.40
2019-03-13T14:58:10.702Z,9.60
2019-03-13T15:01:35.100Z,9.40
2019-03-13T15:04:59.090Z,9.20
2019-03-13T15:08:23.056Z,8.70
2019-03-13T15:11:47.352Z,8.10
2019-03-13T15:15:13.855Z,8.10
2019-03-13T15:18:37.875Z,8.10
2019-03-13T15:22:02.518Z,8.20
2019-03-13T15:25:26.744Z,8.30
2019-03-13T15:28:50.811Z,8.00
2019-03-13T15:32:16.588Z,7.80
2019-03-13T15:35:41.253Z,7.70
2019-03-13T15:39:07.277Z,7.50
2019-03-13T15:42:31.260Z,7.40
2019-03-13T15:45:55.288Z,7.20
2019-03-13T15:49:19.134Z,7.00
2019-03-13T15:52:43.119Z,7.00
2019-03-13T15:56:07.007Z,6.90
2019-03-13T15:59:30.950Z,6.90
2019-03-13T16:02:55.765Z,6.80
2019-03-13T16:06:20.062Z,6.60
2019-03-13T16:09:44.085Z,6.50
2019-03-13T16:13:07.846Z,6.30
2019-03-13T16:16:31.928Z,6.20
2019-03-13T16:19:55.980Z,6.10
2019-03-13T16:23:19.761Z,6.00
2019-03-13T16:26:43.688Z,5.90
2019-03-13T16:30:26.125Z,6.00
2019-03-13T16:33:50.823Z,6.00
2019-03-13T16:37:14.777Z,6.00
2019-03-13T16:40:38.529Z,6.10
2019-03-13T16:44:05.131Z,6.10
2019-03-13T16:47:31.748Z,6.10
2019-03-13T16:50:55.489Z,5.90
2019-03-13T16:54:19.511Z,5.70
2019-03-13T16:57:46.463Z,5.40
2019-03-13T17:01:10.408Z,5.20
2019-03-13T17:04:34.402Z,5.00
2019-03-13T17:07:58.279Z,4.90
2019-03-13T17:11:22.011Z,4.80
2019-03-13T17:14:46.089Z,4.70
2019-03-13T17:18:10.159Z,4.60
2019-03-13T17:21:34.009Z,4.50
2019-03-13T17:24:57.691Z,4.50
2019-03-13T17:28:21.661Z,4.40
2019-03-13T17:31:46.282Z,4.20
2019-03-13T17:35:10.360Z,4.00
2019-03-13T17:38:34.189Z,3.80
2019-03-13T17:41:57.995Z,3.60
2019-03-13T17:45:23.045Z,3.50
2019-03-13T17:48:46.878Z,3.30
2019-03-13T17:52:10.731Z,3.20
2019-03-13T17:55:34.638Z,3.30
2019-03-13T17:58:58.565Z,3.20
2019-03-13T18:02:22.395Z,3.30
2019-03-13T18:05:47.249Z,3.30
2019-03-13T18:09:11.087Z,3.40
2019-03-13T18:12:35.390Z,3.40
2019-03-13T18:15:59.373Z,3.70
2019-03-13T18:19:23.293Z,3.60
2019-03-13T18:22:47.363Z,3.60
2019-03-13T18:26:11.211Z,3.50
2019-03-13T18:29:34.969Z,3.40
2019-03-13T18:32:59.089Z,3.10
2019-03-13T18:36:22.865Z,3.10
2019-03-13T18:39:52.136Z,3.00
2019-03-13T18:43:16.009Z,2.80
2019-03-13T18:46:39.864Z,2.80
2019-03-13T18:50:05.039Z,3.00
2019-03-13T18:53:28.891Z,2.90
2019-03-13T18:56:52.981Z,3.20
2019-03-13T19:00:21.917Z,3.70
2019-03-13T19:03:48.514Z,3.60
2019-03-13T19:07:15.228Z,3.80
2019-03-13T19:10:43.943Z,4.00
2019-03-13T19:14:08.722Z,4.00
2019-03-13T19:17:33.731Z,4.20
2019-03-13T19:20:58.654Z,4.10
2019-03-13T19:24:22.712Z,4.10
2019-03-13T19:27:46.599Z,4.10
2019-03-13T19:31:10.642Z,4.10
2019-03-13T19:34:34.650Z,4.00
2019-03-13T19:38:07.621Z,3.90
2019-03-13T19:41:31.573Z,3.80
2019-03-13T19:44:55.428Z,3.70
2019-03-13T19:48:19.381Z,3.60
2019-03-13T19:51:43.138Z,3.60
2019-03-13T19:55:13.719Z,3.60
2019-03-13T19:58:39.720Z,3.50
2019-03-13T20:02:03.570Z,3.50
2019-03-13T20:05:27.479Z,3.60
2019-03-13T20:08:51.400Z,3.70
2019-03-13T20:12:15.208Z,3.70
2019-03-13T20:15:39.573Z,3.60
2019-03-13T20:19:03.542Z,3.60
2019-03-13T20:22:27.653Z,3.60
2019-03-13T20:25:51.606Z,3.60
2019-03-13T20:29:16.267Z,3.70
2019-03-13T20:32:40.545Z,3.70
2019-03-13T20:36:04.612Z,3.70
2019-03-13T20:39:28.419Z,3.80
2019-03-13T20:42:52.481Z,3.70
2019-03-13T20:46:16.245Z,3.60
2019-03-13T20:49:40.278Z,3.50
2019-03-13T20:53:04.169Z,3.30
2019-03-13T20:56:28.663Z,3.30
2019-03-13T20:59:52.570Z,3.30
2019-03-13T21:03:16.424Z,3.30
2019-03-13T21:06:40.413Z,3.30
2019-03-13T21:10:05.797Z,3.20
2019-03-13T21:13:32.080Z,3.10
2019-03-13T21:16:55.912Z,3.00
2019-03-13T21:20:21.603Z,3.00
2019-03-13T21:23:45.523Z,2.90
2019-03-13T21:27:09.429Z,2.90
2019-03-13T21:30:33.337Z,2.90
2019-03-13T21:33:57.163Z,2.90
2019-03-13T21:37:21.368Z,2.90
2019-03-13T21:40:45.218Z,2.90
2019-03-13T21:44:09.165Z,2.80
2019-03-13T21:47:33.323Z,2.70
2019-03-13T21:50:57.305Z,2.60
2019-03-13T21:54:21.267Z,2.60
2019-03-13T21:57:45.511Z,2.60
2019-03-13T22:01:19.108Z,2.50
2019-03-13T22:04:35.700Z,2.60
2019-03-13T22:08:00.469Z,2.70
2019-03-13T22:11:24.224Z,2.70
2019-03-13T22:14:48.107Z,2.80
2019-03-13T22:18:11.799Z,2.80
2019-03-13T22:21:35.751Z,2.80
2019-03-13T22:24:59.477Z,2.90
2019-03-13T22:28:23.379Z,3.00
2019-03-13T22:31:47.158Z,2.80
2019-03-13T22:35:11.041Z,2.70
2019-03-13T22:38:34.786Z,2.60
2019-03-13T22:41:58.936Z,2.50
2019-03-13T22:45:22.980Z,2.50
2019-03-13T22:48:57.622Z,2.40
2019-03-13T22:52:13.196Z,2.40
2019-03-13T22:55:37.372Z,2.40
2019-03-13T22:59:01.239Z,2.40
2019-03-13T23:02:25.281Z,2.40
2019-03-13T23:05:49.123Z,2.40
2019-03-13T23:09:12.965Z,2.50
2019-03-13T23:12:36.760Z,2.40
2019-03-13T23:16:00.634Z,2.40
2019-03-13T23:19:24.577Z,2.40
2019-03-13T23:22:48.458Z,2.20
2019-03-13T23:26:12.345Z,2.00
2019-03-13T23:29:36.138Z,1.90
2019-03-13T23:33:00.069Z,2.00
2019-03-13T23:36:24.009Z,2.10
2019-03-13T23:39:47.825Z,2.10
2019-03-13T23:43:11.580Z,2.20
2019-03-13T23:46:35.345Z,2.30
2019-03-13T23:49:59.166Z,2.30
2019-03-13T23:53:22.903Z,2.30
2019-03-13T23:56:47.167Z,2.30
